createdAt,value
2023-03-02T00:01:53.961Z,18.90
2023-03-02T00:04:33.289Z,18.80
2023-03-02T00:07:04.351Z,18.98
2023-03-02T00:09:31.365Z,18.25
2023-03-02T00:11:58.377Z,18.92
2023-03-02T00:14:25.568Z,17.63
2023-03-02T00:16:52.508Z,19.02
2023-03-02T00:19:19.291Z,19.88
2023-03-02T00:21:46.055Z,18.77
2023-03-02T00:24:15.391Z,18.85
2023-03-02T00:26:42.458Z,18.85
2023-03-02T00:29:09.224Z,19.33
2023-03-02T00:31:37.942Z,18.08
2023-03-02T00:34:04.974Z,18.02
2023-03-02T00:36:31.982Z,19.63
2023-03-02T00:38:58.919Z,19.92
2023-03-02T00:41:25.653Z,18.92
2023-03-02T00:43:52.389Z,19.58
2023-03-02T00:46:22.235Z,19.52
2023-03-02T00:48:49.749Z,19.20
2023-03-02T00:51:17.028Z,19.40
2023-03-02T00:53:44.173Z,18.70
2023-03-02T00:56:11.530Z,19.17
2023-03-02T00:58:42.935Z,20.00
2023-03-02T01:01:12.543Z,19.45
2023-03-02T01:03:44.244Z,18.25
2023-03-02T01:06:18.834Z,19.13
2023-03-02T01:08:46.085Z,19.95
2023-03-02T01:11:18.025Z,19.15
2023-03-02T01:13:45.967Z,19.03
2023-03-02T01:16:13.146Z,18.88
2023-03-02T01:18:40.352Z,19.50
2023-03-02T01:21:10.471Z,20.00
2023-03-02T01:23:37.452Z,19.98
2023-03-02T01:26:04.455Z,18.90
2023-03-02T01:28:31.307Z,18.70
2023-03-02T01:30:58.598Z,19.92
2023-03-02T01:33:25.320Z,19.95
2023-03-02T01:35:52.257Z,19.83
2023-03-02T01:38:19.143Z,19.98
2023-03-02T01:40:46.097Z,18.65
2023-03-02T01:43:16.452Z,18.40
2023-03-02T01:45:54.124Z,19.35
2023-03-02T01:49:07.191Z,18.83
2023-03-02T01:51:47.564Z,19.58
2023-03-02T01:54:22.833Z,19.73
2023-03-02T01:56:58.372Z,20.42
2023-03-02T01:59:27.885Z,19.92
2023-03-02T02:01:58.792Z,19.63
2023-03-02T02:04:28.787Z,19.65
2023-03-02T02:07:00.696Z,19.63
2023-03-02T02:09:29.965Z,19.80
2023-03-02T02:11:57.006Z,20.95
2023-03-02T02:14:24.629Z,19.38
2023-03-02T02:16:53.020Z,20.15
2023-03-02T02:19:28.818Z,20.23
2023-03-02T02:21:55.642Z,20.33
2023-03-02T02:24:57.337Z,20.70
2023-03-02T02:27:29.809Z,21.23
2023-03-02T02:29:58.325Z,19.58
2023-03-02T02:32:28.526Z,21.40
2023-03-02T02:35:05.575Z,20.80
2023-03-02T02:37:39.709Z,20.08
2023-03-02T02:40:31.290Z,20.85
2023-03-02T02:42:58.244Z,19.85
2023-03-02T02:45:27.331Z,22.02
2023-03-02T02:47:55.986Z,19.92
2023-03-02T02:50:32.521Z,20.40
2023-03-02T02:53:26.054Z,20.88
2023-03-02T02:55:56.739Z,20.70
2023-03-02T02:58:29.009Z,20.20
2023-03-02T03:00:56.152Z,20.23
2023-03-02T03:03:30.864Z,20.20
2023-03-02T03:06:05.966Z,19.83
2023-03-02T03:08:51.972Z,21.17
2023-03-02T03:11:43.427Z,20.70
2023-03-02T03:14:16.978Z,22.10
2023-03-02T03:16:47.585Z,20.83
2023-03-02T03:19:26.859Z,20.85
2023-03-02T03:21:57.574Z,20.38
2023-03-02T03:24:27.440Z,21.10
2023-03-02T03:26:55.430Z,20.63
2023-03-02T03:29:24.959Z,21.58
2023-03-02T03:31:55.769Z,20.67
2023-03-02T03:34:24.270Z,20.85
2023-03-02T03:36:52.184Z,21.30
2023-03-02T03:39:20.210Z,20.77
2023-03-02T03:41:48.484Z,21.73
2023-03-02T03:44:15.877Z,20.67
2023-03-02T03:46:44.262Z,21.00
2023-03-02T03:49:11.732Z,21.77
2023-03-02T03:51:38.948Z,21.55
2023-03-02T03:54:08.876Z,20.55
2023-03-02T03:56:42.378Z,21.13
2023-03-02T03:59:12.354Z,22.35
2023-03-02T04:01:47.929Z,21.00
2023-03-02T04:04:19.491Z,22.48
2023-03-02T04:06:46.432Z,22.08
2023-03-02T04:09:15.328Z,20.52
2023-03-02T04:11:44.195Z,21.83
2023-03-02T04:14:12.724Z,20.75
2023-03-02T04:16:40.915Z,22.67
2023-03-02T04:19:09.663Z,21.42
2023-03-02T04:21:41.883Z,21.10
2023-03-02T04:24:09.791Z,21.13
2023-03-02T04:26:38.076Z,20.15
2023-03-02T04:29:05.772Z,22.67
2023-03-02T04:31:33.822Z,21.33
2023-03-02T04:34:05.403Z,22.02
2023-03-02T04:36:36.812Z,22.25
2023-03-02T04:39:07.167Z,21.75
2023-03-02T04:41:34.097Z,21.40
2023-03-02T04:44:00.862Z,21.25
2023-03-02T04:46:28.215Z,21.85
2023-03-02T04:48:55.356Z,21.05
2023-03-02T04:51:28.937Z,20.90
2023-03-02T04:53:58.272Z,22.77
2023-03-02T04:56:25.409Z,22.23
2023-03-02T04:58:52.165Z,20.60
2023-03-02T05:01:20.057Z,22.08
2023-03-02T05:03:47.122Z,21.23
2023-03-02T05:06:14.341Z,21.60
2023-03-02T05:08:41.565Z,20.35
2023-03-02T05:11:10.661Z,21.63
2023-03-02T05:13:37.470Z,21.90
2023-03-02T05:16:04.579Z,23.10
2023-03-02T05:18:31.394Z,23.33
2023-03-02T05:20:58.364Z,21.27
2023-03-02T05:23:25.949Z,22.83
2023-03-02T05:25:55.276Z,21.90
2023-03-02T05:28:24.116Z,23.23
2023-03-02T05:30:52.240Z,23.08
2023-03-02T05:33:20.291Z,22.63
2023-03-02T05:35:47.928Z,23.17
2023-03-02T05:38:15.626Z,23.83
2023-03-02T05:40:42.572Z,22.08
2023-03-02T05:43:13.738Z,21.88
2023-03-02T05:45:40.504Z,22.85
2023-03-02T05:48:07.625Z,24.23
2023-03-02T05:50:34.945Z,22.27
2023-03-02T05:53:02.564Z,22.88
2023-03-02T05:55:29.365Z,23.50
2023-03-02T05:57:56.394Z,22.92
2023-03-02T06:00:23.490Z,22.52
2023-03-02T06:02:50.289Z,22.70
2023-03-02T06:05:19.395Z,23.90
2023-03-02T06:07:46.121Z,24.15
2023-03-02T06:10:13.322Z,23.95
2023-03-02T06:12:40.759Z,22.75
2023-03-02T06:15:08.997Z,24.67
2023-03-02T06:17:36.024Z,21.85
2023-03-02T06:20:05.086Z,22.70
2023-03-02T06:22:32.063Z,22.38
2023-03-02T06:24:58.799Z,21.90
2023-03-02T06:27:25.562Z,21.50
2023-03-02T06:29:53.220Z,22.90
2023-03-02T06:32:20.164Z,23.70
2023-03-02T06:34:47.029Z,23.52
2023-03-02T06:37:14.109Z,22.80
2023-03-02T06:39:40.980Z,23.02
2023-03-02T06:42:07.833Z,23.92
2023-03-02T06:44:34.625Z,22.20
2023-03-02T06:47:01.373Z,22.90
2023-03-02T06:49:28.312Z,22.48
2023-03-02T06:51:55.111Z,22.13
2023-03-02T06:54:23.986Z,21.90
2023-03-02T06:56:51.129Z,22.02
2023-03-02T06:59:17.916Z,22.58
2023-03-02T07:01:44.736Z,20.92
2023-03-02T07:04:11.528Z,21.83
2023-03-02T07:06:38.527Z,21.75
2023-03-02T07:09:05.250Z,21.83
2023-03-02T07:11:32.420Z,22.23
2023-03-02T07:14:02.759Z,21.98
2023-03-02T07:16:31.141Z,23.30
2023-03-02T07:18:57.892Z,22.55
2023-03-02T07:21:24.663Z,21.83
2023-03-02T07:23:51.347Z,20.80
2023-03-02T07:26:20.670Z,21.08
2023-03-02T07:28:47.379Z,21.20
2023-03-02T07:31:14.306Z,21.88
2023-03-02T07:33:41.355Z,21.48
2023-03-02T07:36:08.612Z,21.52
2023-03-02T07:38:37.552Z,21.83
2023-03-02T07:41:11.001Z,21.83
2023-03-02T07:43:38.522Z,21.63
2023-03-02T07:46:05.914Z,21.73
2023-03-02T07:48:36.201Z,21.58
2023-03-02T07:51:05.046Z,20.67
2023-03-02T07:53:32.213Z,20.35
2023-03-02T07:56:00.834Z,20.92
2023-03-02T07:58:27.700Z,23.08
2023-03-02T08:00:54.492Z,22.55
2023-03-02T08:03:23.548Z,21.02
2023-03-02T08:05:50.286Z,25.80
2023-03-02T08:08:19.039Z,24.73
2023-03-02T08:10:45.803Z,23.48
2023-03-02T08:13:12.586Z,20.92
2023-03-02T08:15:39.312Z,22.17
2023-03-02T08:18:06.098Z,22.02
2023-03-02T08:20:32.840Z,21.30
2023-03-02T08:22:59.604Z,21.02
2023-03-02T08:25:26.350Z,20.55
2023-03-02T08:27:53.089Z,20.90
2023-03-02T08:30:20.061Z,21.00
2023-03-02T08:32:46.807Z,21.05
2023-03-02T08:35:17.385Z,20.20
2023-03-02T08:37:44.134Z,20.73
2023-03-02T08:40:13.409Z,21.10
2023-03-02T08:42:40.105Z,19.92
2023-03-02T08:45:07.432Z,19.98
2023-03-02T08:47:34.245Z,20.63
2023-03-02T08:50:01.048Z,19.85
2023-03-02T08:52:27.875Z,20.30
2023-03-02T08:54:54.801Z,19.77
2023-03-02T08:57:21.561Z,20.48
2023-03-02T08:59:48.249Z,20.13
2023-03-02T09:02:15.244Z,19.90
2023-03-02T09:04:41.983Z,19.38
2023-03-02T09:07:09.346Z,19.98
2023-03-02T09:09:36.150Z,20.08
2023-03-02T09:12:02.965Z,19.45
2023-03-02T09:14:29.700Z,19.58
2023-03-02T09:16:56.480Z,19.05
2023-03-02T09:19:23.283Z,19.98
2023-03-02T09:21:50.259Z,19.13
2023-03-02T09:24:17.101Z,19.27
2023-03-02T09:26:44.062Z,21.00
2023-03-02T09:29:10.885Z,19.98
2023-03-02T09:31:38.495Z,19.48
2023-03-02T09:34:05.913Z,19.60
2023-03-02T09:36:34.993Z,20.13
2023-03-02T09:39:03.709Z,18.38
2023-03-02T09:41:49.912Z,18.95
2023-03-02T09:44:35.467Z,18.83
2023-03-02T09:47:29.941Z,19.58
2023-03-02T09:50:24.244Z,18.55
2023-03-02T09:53:21.972Z,18.38
2023-03-02T09:55:54.097Z,18.60
2023-03-02T09:58:25.501Z,18.85
2023-03-02T10:00:52.468Z,17.92
2023-03-02T10:03:22.541Z,17.95
2023-03-02T10:05:51.909Z,18.08
2023-03-02T10:08:22.140Z,18.90
2023-03-02T10:11:16.715Z,19.35
2023-03-02T10:14:06.426Z,18.25
2023-03-02T10:16:37.297Z,18.33
2023-03-02T10:19:18.621Z,18.33
2023-03-02T10:21:56.051Z,18.25
2023-03-02T10:24:47.011Z,17.95
2023-03-02T10:27:37.289Z,18.40
2023-03-02T10:30:33.678Z,18.00
2023-03-02T10:33:08.177Z,17.65
2023-03-02T10:35:37.943Z,17.98
2023-03-02T10:38:13.586Z,18.02
2023-03-02T10:40:45.920Z,18.52
2023-03-02T10:43:26.120Z,19.65
2023-03-02T10:46:04.988Z,17.95
2023-03-02T10:48:31.890Z,18.17
2023-03-02T10:51:01.393Z,17.35
2023-03-02T10:53:29.050Z,18.08
2023-03-02T10:55:55.877Z,18.35
2023-03-02T10:58:31.025Z,18.13
2023-03-02T11:01:07.313Z,17.38
2023-03-02T11:03:34.364Z,18.52
2023-03-02T11:06:19.336Z,19.73
2023-03-02T11:08:48.269Z,20.40
2023-03-02T11:11:24.899Z,20.20
2023-03-02T11:13:56.353Z,20.45
2023-03-02T11:16:28.415Z,20.83
2023-03-02T11:19:03.413Z,20.67
2023-03-02T11:21:33.648Z,20.17
2023-03-02T11:24:21.829Z,21.27
2023-03-02T11:26:59.595Z,19.00
2023-03-02T11:29:32.550Z,19.60
2023-03-02T11:34:46.800Z,19.85
2023-03-02T11:37:18.468Z,20.05
2023-03-02T11:39:55.236Z,20.33
2023-03-02T11:42:30.992Z,19.98
2023-03-02T11:45:03.751Z,19.35
2023-03-02T11:47:33.117Z,19.67
2023-03-02T11:50:05.380Z,20.15
2023-03-02T11:52:37.675Z,19.35
2023-03-02T11:55:22.547Z,19.60
2023-03-02T11:58:02.820Z,18.45
2023-03-02T12:00:41.192Z,19.92
2023-03-02T12:03:28.225Z,20.17
2023-03-02T12:06:18.549Z,19.83
2023-03-02T12:08:48.179Z,19.95
2023-03-02T12:11:18.066Z,19.88
2023-03-02T12:14:06.359Z,19.17
2023-03-02T12:16:43.279Z,17.95
2023-03-02T12:19:14.677Z,18.75
2023-03-02T12:21:58.169Z,19.48
2023-03-02T12:24:31.397Z,18.95
2023-03-02T12:27:26.458Z,18.23
2023-03-02T12:30:32.524Z,19.25
2023-03-02T12:33:01.195Z,20.60
2023-03-02T12:35:31.126Z,19.58
2023-03-02T12:38:01.746Z,20.38
2023-03-02T12:40:31.409Z,19.45
2023-03-02T12:43:22.510Z,18.63
2023-03-02T12:46:27.524Z,18.27
2023-03-02T12:49:11.101Z,17.42
2023-03-02T12:51:48.570Z,19.10
2023-03-02T12:54:18.270Z,17.98
2023-03-02T12:56:45.942Z,19.92
2023-03-02T12:59:24.673Z,17.98
2023-03-02T13:01:52.018Z,20.08
2023-03-02T13:04:24.423Z,17.95
2023-03-02T13:06:52.536Z,14.35
2023-03-02T13:09:20.358Z,19.77
2023-03-02T13:11:49.387Z,19.17
2023-03-02T13:14:28.300Z,19.70
2023-03-02T13:17:02.891Z,18.88
2023-03-02T13:19:33.703Z,18.90
2023-03-02T13:22:00.961Z,20.33
2023-03-02T13:24:50.876Z,18.52
2023-03-02T13:27:24.096Z,20.00
2023-03-02T13:29:55.646Z,20.27
2023-03-02T13:32:28.370Z,19.92
2023-03-02T13:35:00.535Z,20.27
2023-03-02T13:37:40.521Z,19.73
2023-03-02T13:40:28.260Z,19.75
2023-03-02T13:42:57.728Z,18.63
2023-03-02T13:45:34.256Z,18.65
2023-03-02T13:48:15.295Z,19.65
2023-03-02T13:50:56.407Z,19.00
2023-03-02T13:53:24.435Z,20.42
2023-03-02T13:55:55.655Z,19.63
2023-03-02T13:58:24.131Z,19.73
2023-03-02T14:00:51.717Z,20.02
2023-03-02T14:03:23.229Z,19.15
2023-03-02T14:05:51.416Z,18.70
2023-03-02T14:08:18.780Z,18.73
2023-03-02T14:10:46.530Z,18.83
2023-03-02T14:13:34.813Z,19.13
2023-03-02T14:16:01.799Z,18.02
2023-03-02T14:18:39.419Z,19.15
2023-03-02T14:21:18.249Z,19.67
2023-03-02T14:23:46.610Z,19.35
2023-03-02T14:26:33.654Z,17.98
2023-03-02T14:29:05.924Z,18.92
2023-03-02T14:31:34.321Z,18.55
2023-03-02T14:34:01.497Z,18.77
2023-03-02T14:36:31.715Z,18.92
2023-03-02T14:39:00.944Z,18.92
2023-03-02T14:41:28.364Z,18.23
2023-03-02T14:43:57.790Z,19.15
2023-03-02T14:46:24.604Z,19.77
2023-03-02T14:48:51.315Z,18.35
2023-03-02T14:51:27.873Z,18.75
2023-03-02T14:53:56.721Z,18.02
2023-03-02T14:56:23.816Z,18.15
2023-03-02T14:58:51.969Z,19.10
2023-03-02T15:01:19.778Z,17.63
2023-03-02T15:03:49.705Z,18.55
2023-03-02T15:06:28.874Z,18.42
2023-03-02T15:08:57.396Z,17.73
2023-03-02T15:11:27.075Z,17.58
2023-03-02T15:13:54.474Z,19.58
2023-03-02T15:16:22.188Z,18.33
2023-03-02T15:18:50.329Z,18.73
2023-03-02T15:21:20.770Z,17.95
2023-03-02T15:23:47.652Z,18.52
2023-03-02T15:26:15.166Z,18.90
2023-03-02T15:28:42.285Z,18.70
2023-03-02T15:31:14.464Z,18.50
2023-03-02T15:33:43.122Z,19.57
2023-03-02T15:36:10.130Z,18.17
2023-03-02T15:38:37.275Z,18.45
2023-03-02T15:41:11.899Z,18.42
2023-03-02T15:43:39.172Z,18.33
2023-03-02T15:46:06.863Z,18.92
2023-03-02T15:48:33.606Z,18.50
2023-03-02T15:51:02.443Z,17.83
2023-03-02T15:53:30.650Z,18.33
2023-03-02T15:55:57.473Z,18.13
2023-03-02T15:58:26.641Z,19.05
2023-03-02T16:00:53.516Z,18.70
2023-03-02T16:03:22.703Z,18.00
2023-03-02T16:05:49.653Z,18.55
2023-03-02T16:08:16.573Z,18.17
2023-03-02T16:10:43.694Z,19.55
2023-03-02T16:13:13.224Z,17.75
2023-03-02T16:15:41.640Z,18.55
2023-03-02T16:18:12.682Z,17.75
2023-03-02T16:20:39.424Z,17.95
2023-03-02T16:23:08.126Z,19.38
2023-03-02T16:25:36.789Z,20.05
2023-03-02T16:28:04.017Z,18.65
2023-03-02T16:30:31.184Z,19.27
2023-03-02T16:33:02.707Z,19.20
2023-03-02T16:35:31.260Z,19.27
2023-03-02T16:37:58.228Z,19.55
2023-03-02T16:40:25.737Z,18.88
2023-03-02T16:42:52.578Z,19.83
2023-03-02T16:45:20.191Z,19.80
2023-03-02T16:47:49.813Z,19.73
2023-03-02T16:50:17.460Z,19.88
2023-03-02T16:52:44.577Z,20.30
2023-03-02T16:55:15.786Z,18.13
2023-03-02T16:57:43.193Z,19.73
2023-03-02T17:00:13.572Z,19.40
2023-03-02T17:02:40.378Z,20.42
2023-03-02T17:05:07.469Z,19.30
2023-03-02T17:07:34.317Z,20.13
2023-03-02T17:10:01.441Z,21.35
2023-03-02T17:12:28.239Z,20.58
2023-03-02T17:14:54.960Z,20.38
2023-03-02T17:17:21.859Z,20.25
2023-03-02T17:19:48.926Z,20.20
2023-03-02T17:22:19.066Z,20.13
2023-03-02T17:24:45.868Z,20.42
2023-03-02T17:27:24.040Z,19.92
2023-03-02T17:29:52.377Z,20.27
2023-03-02T17:32:19.484Z,19.52
2023-03-02T17:34:47.369Z,20.63
2023-03-02T17:37:14.693Z,20.50
2023-03-02T17:39:41.533Z,19.48
2023-03-02T17:42:08.422Z,21.17
2023-03-02T17:44:38.232Z,21.35
2023-03-02T17:47:06.637Z,21.00
2023-03-02T17:49:40.354Z,20.27
2023-03-02T17:52:07.153Z,21.85
2023-03-02T17:54:33.920Z,20.83
2023-03-02T17:57:00.667Z,21.63
2023-03-02T17:59:27.439Z,20.98
2023-03-02T18:01:54.189Z,20.17
2023-03-02T18:04:21.004Z,21.88
2023-03-02T18:06:48.043Z,22.80
2023-03-02T18:09:16.138Z,21.95
2023-03-02T18:11:43.196Z,22.10
2023-03-02T18:14:14.231Z,22.60
2023-03-02T18:16:43.478Z,21.27
2023-03-02T18:19:10.390Z,21.17
2023-03-02T18:21:39.672Z,21.20
2023-03-02T18:24:06.926Z,23.08
2023-03-02T18:26:33.766Z,21.92
2023-03-02T18:29:00.475Z,21.45
2023-03-02T18:31:28.426Z,22.27
2023-03-02T18:33:55.306Z,22.35
2023-03-02T18:36:22.050Z,23.67
2023-03-02T18:38:52.580Z,21.90
2023-03-02T18:41:20.123Z,22.42
2023-03-02T18:43:50.746Z,21.50
2023-03-02T18:46:26.691Z,22.63
2023-03-02T18:48:54.826Z,22.33
2023-03-02T18:51:23.593Z,22.42
2023-03-02T18:53:52.263Z,21.75
2023-03-02T18:56:19.294Z,21.85
2023-03-02T18:58:46.674Z,21.35
2023-03-02T19:01:13.563Z,22.30
2023-03-02T19:03:41.761Z,22.27
2023-03-02T19:06:08.995Z,22.13
2023-03-02T19:08:36.346Z,22.38
2023-03-02T19:11:04.608Z,23.45
2023-03-02T19:13:31.450Z,22.48
2023-03-02T19:15:58.441Z,24.75
2023-03-02T19:18:25.619Z,24.85
2023-03-02T19:20:54.411Z,22.33
2023-03-02T19:23:21.613Z,25.38
2023-03-02T19:25:48.831Z,24.20
2023-03-02T19:28:15.972Z,24.88
2023-03-02T19:30:43.126Z,24.98
2023-03-02T19:33:10.053Z,22.90
2023-03-02T19:35:38.355Z,23.33
2023-03-02T19:38:06.805Z,24.13
2023-03-02T19:40:34.634Z,23.05
2023-03-02T19:43:02.377Z,24.33
2023-03-02T19:45:34.822Z,23.67
2023-03-02T19:48:02.912Z,23.83
2023-03-02T19:50:30.503Z,23.52
2023-03-02T19:52:57.932Z,23.83
2023-03-02T19:55:25.750Z,23.50
2023-03-02T19:57:59.513Z,24.42
2023-03-02T20:00:28.730Z,23.75
2023-03-02T20:02:56.304Z,23.92
2023-03-02T20:05:23.563Z,23.95
2023-03-02T20:07:50.584Z,24.25
2023-03-02T20:10:39.598Z,24.65
2023-03-02T20:13:07.258Z,25.63
2023-03-02T20:15:38.092Z,25.38
2023-03-02T20:18:07.352Z,24.83
2023-03-02T20:20:34.128Z,24.65
2023-03-02T20:23:00.925Z,25.45
2023-03-02T20:25:29.642Z,25.30
2023-03-02T20:27:57.476Z,27.58
2023-03-02T20:30:29.934Z,28.15
2023-03-02T20:32:58.618Z,31.95
2023-03-02T20:35:27.233Z,31.98
2023-03-02T20:37:57.802Z,26.92
2023-03-02T20:40:25.450Z,27.42
2023-03-02T20:42:52.758Z,27.98
2023-03-02T20:45:19.637Z,25.00
2023-03-02T20:47:47.349Z,23.98
2023-03-02T20:50:17.340Z,25.52
2023-03-02T20:52:44.268Z,24.15
2023-03-02T20:55:11.725Z,25.30
2023-03-02T20:57:38.732Z,25.52
2023-03-02T21:00:11.860Z,25.88
2023-03-02T21:02:38.628Z,23.45
2023-03-02T21:05:05.734Z,23.45
2023-03-02T21:07:35.815Z,25.52
2023-03-02T21:10:06.288Z,23.65
2023-03-02T21:12:33.667Z,24.77
2023-03-02T21:15:02.046Z,23.55
2023-03-02T21:17:30.672Z,24.38
2023-03-02T21:19:58.155Z,23.15
2023-03-02T21:22:25.404Z,23.42
2023-03-02T21:24:53.039Z,23.90
2023-03-02T21:27:21.048Z,24.02
2023-03-02T21:29:48.546Z,23.25
2023-03-02T21:32:15.582Z,25.92
2023-03-02T21:34:44.849Z,23.00
2023-03-02T21:37:11.830Z,23.63
2023-03-02T21:39:38.558Z,23.42
2023-03-02T21:42:05.486Z,22.50
2023-03-02T21:44:32.240Z,22.88
2023-03-02T21:47:00.210Z,23.05
2023-03-02T21:49:26.988Z,23.33
2023-03-02T21:51:53.745Z,22.83
2023-03-02T21:54:20.523Z,23.70
2023-03-02T21:56:47.342Z,22.65
2023-03-02T21:59:14.120Z,21.30
2023-03-02T22:01:41.269Z,23.95
2023-03-02T22:04:08.114Z,23.98
2023-03-02T22:06:35.725Z,22.70
2023-03-02T22:09:03.860Z,22.35
2023-03-02T22:11:36.352Z,23.40
2023-03-02T22:14:12.058Z,25.13
2023-03-02T22:16:41.441Z,23.15
2023-03-02T22:19:30.718Z,22.98
2023-03-02T22:22:03.136Z,24.13
2023-03-02T22:24:32.267Z,23.95
2023-03-02T22:27:05.192Z,23.77
2023-03-02T22:32:17.343Z,23.67
2023-03-02T22:34:46.039Z,25.20
2023-03-02T22:37:21.880Z,24.25
2023-03-02T22:39:50.608Z,24.08
2023-03-02T22:42:23.074Z,22.60
2023-03-02T22:44:58.741Z,24.30
2023-03-02T22:47:26.410Z,22.20
2023-03-02T22:49:58.288Z,23.90
2023-03-02T22:52:37.205Z,23.48
2023-03-02T22:55:27.769Z,24.38
2023-03-02T22:57:54.558Z,23.67
2023-03-02T23:00:40.607Z,24.48
2023-03-02T23:03:37.971Z,23.92
2023-03-02T23:06:37.045Z,23.17
2023-03-02T23:09:06.035Z,23.63
2023-03-02T23:11:37.848Z,23.42
2023-03-02T23:14:23.888Z,23.70
2023-03-02T23:16:58.096Z,24.40
2023-03-02T23:19:27.245Z,24.98
2023-03-02T23:21:54.742Z,23.25
2023-03-02T23:24:22.105Z,23.63
2023-03-02T23:26:52.893Z,24.60
2023-03-02T23:29:21.313Z,24.70
2023-03-02T23:31:49.644Z,24.92
2023-03-02T23:34:16.612Z,25.23
2023-03-02T23:36:43.658Z,23.90
2023-03-02T23:39:10.936Z,23.33
2023-03-02T23:41:38.821Z,25.58
2023-03-02T23:44:06.860Z,24.50
2023-03-02T23:46:33.715Z,25.20
2023-03-02T23:49:00.654Z,25.20
2023-03-02T23:51:27.742Z,24.02
2023-03-02T23:53:55.060Z,24.52
2023-03-02T23:56:22.604Z,23.83
2023-03-02T23:58:49.420Z,25.48
